sensor_id;sensor_type;location;lat;lon;timestamp;P1;durP1;ratioP1;P2;durP2;ratioP2
39156;SDS011;24889;42.424;25.604;2022-11-15T00:02:02;50.40;;;25.53;;
39156;SDS011;24889;42.424;25.604;2022-11-15T00:04:29;50.33;;;25.88;;
39156;SDS011;24889;42.424;25.604;2022-11-15T00:06:55;51.60;;;26.60;;
39156;SDS011;24889;42.424;25.604;2022-11-15T00:09:20;48.63;;;24.67;;
39156;SDS011;24889;42.424;25.604;2022-11-15T00:11:45;52.10;;;24.87;;
39156;SDS011;24889;42.424;25.604;2022-11-15T00:14:10;50.33;;;24.27;;
39156;SDS011;24889;42.424;25.604;2022-11-15T00:16:36;51.00;;;26.03;;
39156;SDS011;24889;42.424;25.604;2022-11-15T00:19:01;52.30;;;27.13;;
39156;SDS011;24889;42.424;25.604;2022-11-15T00:21:27;52.90;;;26.40;;
39156;SDS011;24889;42.424;25.604;2022-11-15T00:23:52;48.90;;;26.67;;
39156;SDS011;24889;42.424;25.604;2022-11-15T00:26:17;52.93;;;24.73;;
39156;SDS011;24889;42.424;25.604;2022-11-15T00:28:43;49.07;;;25.60;;
39156;SDS011;24889;42.424;25.604;2022-11-15T00:31:08;49.07;;;24.97;;
39156;SDS011;24889;42.424;25.604;2022-11-15T00:33:34;48.35;;;25.25;;
39156;SDS011;24889;42.424;25.604;2022-11-15T00:36:02;48.87;;;25.80;;
39156;SDS011;24889;42.424;25.604;2022-11-15T00:38:36;48.65;;;24.83;;
39156;SDS011;24889;42.424;25.604;2022-11-15T00:41:03;47.38;;;26.35;;
39156;SDS011;24889;42.424;25.604;2022-11-15T00:43:28;50.47;;;24.48;;
39156;SDS011;24889;42.424;25.604;2022-11-15T00:45:54;50.83;;;25.33;;
39156;SDS011;24889;42.424;25.604;2022-11-15T00:48:19;46.07;;;24.97;;
39156;SDS011;24889;42.424;25.604;2022-11-15T00:50:44;51.43;;;24.77;;
39156;SDS011;24889;42.424;25.604;2022-11-15T00:53:10;45.73;;;24.30;;
39156;SDS011;24889;42.424;25.604;2022-11-15T00:55:35;50.75;;;25.55;;
39156;SDS011;24889;42.424;25.604;2022-11-15T00:58:00;52.77;;;27.10;;
39156;SDS011;24889;42.424;25.604;2022-11-15T01:00:26;49.37;;;25.83;;
39156;SDS011;24889;42.424;25.604;2022-11-15T01:02:51;48.93;;;24.40;;
39156;SDS011;24889;42.424;25.604;2022-11-15T01:05:16;49.07;;;24.87;;
39156;SDS011;24889;42.424;25.604;2022-11-15T01:07:42;46.17;;;25.47;;
39156;SDS011;24889;42.424;25.604;2022-11-15T01:10:07;52.17;;;24.87;;
39156;SDS011;24889;42.424;25.604;2022-11-15T01:12:33;48.95;;;24.85;;
39156;SDS011;24889;42.424;25.604;2022-11-15T01:14:58;55.53;;;26.93;;
39156;SDS011;24889;42.424;25.604;2022-11-15T01:17:23;49.40;;;24.00;;
39156;SDS011;24889;42.424;25.604;2022-11-15T01:19:49;46.63;;;23.70;;
39156;SDS011;24889;42.424;25.604;2022-11-15T01:22:14;48.97;;;25.67;;
39156;SDS011;24889;42.424;25.604;2022-11-15T01:24:39;47.40;;;24.60;;
39156;SDS011;24889;42.424;25.604;2022-11-15T01:27:05;50.10;;;24.87;;
39156;SDS011;24889;42.424;25.604;2022-11-15T01:29:30;49.00;;;24.77;;
39156;SDS011;24889;42.424;25.604;2022-11-15T01:31:55;41.97;;;23.00;;
39156;SDS011;24889;42.424;25.604;2022-11-15T01:34:21;50.00;;;25.93;;
39156;SDS011;24889;42.424;25.604;2022-11-15T01:36:46;48.00;;;25.03;;
39156;SDS011;24889;42.424;25.604;2022-11-15T01:39:11;50.73;;;25.73;;
39156;SDS011;24889;42.424;25.604;2022-11-15T01:41:36;46.03;;;26.53;;
39156;SDS011;24889;42.424;25.604;2022-11-15T01:46:46;51.38;;;26.15;;
39156;SDS011;24889;42.424;25.604;2022-11-15T01:49:13;48.78;;;28.17;;
39156;SDS011;24889;42.424;25.604;2022-11-15T01:51:39;48.50;;;25.42;;
39156;SDS011;24889;42.424;25.604;2022-11-15T01:54:06;52.50;;;25.00;;
39156;SDS011;24889;42.424;25.604;2022-11-15T01:56:35;50.17;;;25.60;;
39156;SDS011;24889;42.424;25.604;2022-11-15T01:59:04;56.10;;;28.60;;
39156;SDS011;24889;42.424;25.604;2022-11-15T02:01:30;50.83;;;24.88;;
39156;SDS011;24889;42.424;25.604;2022-11-15T02:08:47;54.77;;;25.77;;
39156;SDS011;24889;42.424;25.604;2022-11-15T02:11:12;52.47;;;25.10;;
39156;SDS011;24889;42.424;25.604;2022-11-15T02:13:38;49.83;;;27.77;;
39156;SDS011;24889;42.424;25.604;2022-11-15T02:16:09;52.08;;;26.10;;
39156;SDS011;24889;42.424;25.604;2022-11-15T02:18:37;53.40;;;27.13;;
39156;SDS011;24889;42.424;25.604;2022-11-15T02:23:45;52.22;;;27.38;;
39156;SDS011;24889;42.424;25.604;2022-11-15T02:29:28;47.95;;;24.70;;
39156;SDS011;24889;42.424;25.604;2022-11-15T02:34:28;54.13;;;27.53;;
39156;SDS011;24889;42.424;25.604;2022-11-15T02:39:38;50.25;;;25.58;;
39156;SDS011;24889;42.424;25.604;2022-11-15T02:42:12;55.38;;;25.08;;
39156;SDS011;24889;42.424;25.604;2022-11-15T02:44:57;44.55;;;25.15;;
39156;SDS011;24889;42.424;25.604;2022-11-15T02:47:23;47.35;;;25.23;;
39156;SDS011;24889;42.424;25.604;2022-11-15T02:49:52;52.70;;;24.77;;
39156;SDS011;24889;42.424;25.604;2022-11-15T02:52:21;44.13;;;24.27;;
39156;SDS011;24889;42.424;25.604;2022-11-15T02:54:57;42.38;;;23.15;;
39156;SDS011;24889;42.424;25.604;2022-11-15T02:57:35;44.57;;;23.43;;
39156;SDS011;24889;42.424;25.604;2022-11-15T03:07:51;44.00;;;23.40;;
39156;SDS011;24889;42.424;25.604;2022-11-15T03:13:02;43.43;;;23.57;;
39156;SDS011;24889;42.424;25.604;2022-11-15T03:15:32;46.05;;;23.88;;
39156;SDS011;24889;42.424;25.604;2022-11-15T03:18:02;44.33;;;24.52;;
39156;SDS011;24889;42.424;25.604;2022-11-15T03:20:29;46.92;;;24.65;;
39156;SDS011;24889;42.424;25.604;2022-11-15T03:22:56;41.15;;;23.27;;
39156;SDS011;24889;42.424;25.604;2022-11-15T03:30:12;43.87;;;22.17;;
39156;SDS011;24889;42.424;25.604;2022-11-15T03:32:46;48.13;;;23.48;;
39156;SDS011;24889;42.424;25.604;2022-11-15T03:35:17;42.22;;;23.15;;
39156;SDS011;24889;42.424;25.604;2022-11-15T03:40:37;51.67;;;25.80;;
39156;SDS011;24889;42.424;25.604;2022-11-15T03:43:11;51.90;;;24.27;;
39156;SDS011;24889;42.424;25.604;2022-11-15T03:45:41;46.03;;;23.60;;
39156;SDS011;24889;42.424;25.604;2022-11-15T03:48:10;57.03;;;26.95;;
39156;SDS011;24889;42.424;25.604;2022-11-15T03:50:37;53.47;;;25.73;;
39156;SDS011;24889;42.424;25.604;2022-11-15T03:53:03;61.37;;;27.90;;
39156;SDS011;24889;42.424;25.604;2022-11-15T03:55:28;56.20;;;27.30;;
39156;SDS011;24889;42.424;25.604;2022-11-15T03:57:57;51.42;;;26.33;;
39156;SDS011;24889;42.424;25.604;2022-11-15T04:00:23;55.17;;;26.45;;
39156;SDS011;24889;42.424;25.604;2022-11-15T04:02:49;60.00;;;26.50;;
39156;SDS011;24889;42.424;25.604;2022-11-15T04:05:14;49.03;;;27.40;;
39156;SDS011;24889;42.424;25.604;2022-11-15T04:07:39;57.70;;;28.07;;
39156;SDS011;24889;42.424;25.604;2022-11-15T04:10:05;46.70;;;23.03;;
39156;SDS011;24889;42.424;25.604;2022-11-15T04:12:35;50.30;;;27.38;;
39156;SDS011;24889;42.424;25.604;2022-11-15T04:15:04;58.53;;;27.25;;
39156;SDS011;24889;42.424;25.604;2022-11-15T04:17:34;59.40;;;28.65;;
39156;SDS011;24889;42.424;25.604;2022-11-15T04:19:59;53.40;;;25.58;;
39156;SDS011;24889;42.424;25.604;2022-11-15T04:22:43;54.88;;;26.75;;
39156;SDS011;24889;42.424;25.604;2022-11-15T04:25:28;49.03;;;26.38;;
39156;SDS011;24889;42.424;25.604;2022-11-15T04:27:53;50.53;;;24.80;;
39156;SDS011;24889;42.424;25.604;2022-11-15T04:30:18;50.17;;;25.67;;
39156;SDS011;24889;42.424;25.604;2022-11-15T04:32:44;45.37;;;24.60;;
39156;SDS011;24889;42.424;25.604;2022-11-15T04:35:09;51.33;;;26.07;;
39156;SDS011;24889;42.424;25.604;2022-11-15T04:37:34;51.40;;;27.27;;
39156;SDS011;24889;42.424;25.604;2022-11-15T04:40:00;50.97;;;26.93;;
39156;SDS011;24889;42.424;25.604;2022-11-15T04:42:25;52.97;;;26.42;;
39156;SDS011;24889;42.424;25.604;2022-11-15T04:44:51;54.33;;;26.33;;
39156;SDS011;24889;42.424;25.604;2022-11-15T04:47:16;47.90;;;25.00;;
39156;SDS011;24889;42.424;25.604;2022-11-15T04:49:41;58.53;;;27.87;;
39156;SDS011;24889;42.424;25.604;2022-11-15T04:52:08;55.85;;;27.13;;
39156;SDS011;24889;42.424;25.604;2022-11-15T04:54:34;56.47;;;27.20;;
39156;SDS011;24889;42.424;25.604;2022-11-15T04:57:05;57.07;;;27.10;;
39156;SDS011;24889;42.424;25.604;2022-11-15T04:59:30;61.40;;;28.00;;
39156;SDS011;24889;42.424;25.604;2022-11-15T05:01:56;53.87;;;25.37;;
39156;SDS011;24889;42.424;25.604;2022-11-15T05:04:21;55.70;;;25.20;;
39156;SDS011;24889;42.424;25.604;2022-11-15T05:06:50;48.47;;;24.60;;
39156;SDS011;24889;42.424;25.604;2022-11-15T05:09:16;47.72;;;24.45;;
39156;SDS011;24889;42.424;25.604;2022-11-15T05:11:42;60.13;;;25.27;;
39156;SDS011;24889;42.424;25.604;2022-11-15T05:14:07;48.40;;;24.20;;
39156;SDS011;24889;42.424;25.604;2022-11-15T05:16:32;46.60;;;23.20;;
39156;SDS011;24889;42.424;25.604;2022-11-15T05:18:57;45.73;;;22.50;;
39156;SDS011;24889;42.424;25.604;2022-11-15T05:21:23;45.60;;;22.50;;
39156;SDS011;24889;42.424;25.604;2022-11-15T05:23:48;48.47;;;24.97;;
39156;SDS011;24889;42.424;25.604;2022-11-15T05:26:15;52.83;;;26.47;;
39156;SDS011;24889;42.424;25.604;2022-11-15T05:28:40;51.35;;;24.83;;
39156;SDS011;24889;42.424;25.604;2022-11-15T05:31:07;52.73;;;25.97;;
39156;SDS011;24889;42.424;25.604;2022-11-15T05:36:06;43.92;;;22.92;;
39156;SDS011;24889;42.424;25.604;2022-11-15T05:38:33;42.53;;;20.65;;
39156;SDS011;24889;42.424;25.604;2022-11-15T05:40:59;43.03;;;22.97;;
39156;SDS011;24889;42.424;25.604;2022-11-15T05:43:24;53.65;;;29.95;;
39156;SDS011;24889;42.424;25.604;2022-11-15T05:45:50;66.03;;;36.27;;
39156;SDS011;24889;42.424;25.604;2022-11-15T05:48:15;54.87;;;30.20;;
39156;SDS011;24889;42.424;25.604;2022-11-15T05:50:41;60.30;;;37.33;;
39156;SDS011;24889;42.424;25.604;2022-11-15T05:55:32;70.20;;;38.73;;
39156;SDS011;24889;42.424;25.604;2022-11-15T05:57:58;151.33;;;102.60;;
39156;SDS011;24889;42.424;25.604;2022-11-15T06:00:23;73.27;;;43.77;;
39156;SDS011;24889;42.424;25.604;2022-11-15T06:02:48;69.53;;;43.97;;
39156;SDS011;24889;42.424;25.604;2022-11-15T06:05:14;69.80;;;40.40;;
39156;SDS011;24889;42.424;25.604;2022-11-15T06:07:39;61.17;;;37.37;;
39156;SDS011;24889;42.424;25.604;2022-11-15T06:10:04;63.67;;;37.10;;
39156;SDS011;24889;42.424;25.604;2022-11-15T06:12:30;62.67;;;36.22;;
39156;SDS011;24889;42.424;25.604;2022-11-15T06:14:55;56.07;;;33.67;;
39156;SDS011;24889;42.424;25.604;2022-11-15T06:17:20;57.00;;;32.33;;
39156;SDS011;24889;42.424;25.604;2022-11-15T06:19:46;61.43;;;33.93;;
39156;SDS011;24889;42.424;25.604;2022-11-15T06:22:11;63.97;;;35.93;;
39156;SDS011;24889;42.424;25.604;2022-11-15T06:24:36;61.13;;;30.90;;
39156;SDS011;24889;42.424;25.604;2022-11-15T06:27:01;62.10;;;32.40;;
39156;SDS011;24889;42.424;25.604;2022-11-15T06:29:27;59.37;;;33.33;;
39156;SDS011;24889;42.424;25.604;2022-11-15T06:31:52;59.07;;;30.07;;
39156;SDS011;24889;42.424;25.604;2022-11-15T06:34:18;56.38;;;31.38;;
39156;SDS011;24889;42.424;25.604;2022-11-15T06:36:43;51.87;;;26.77;;
39156;SDS011;24889;42.424;25.604;2022-11-15T06:39:08;48.70;;;26.57;;
39156;SDS011;24889;42.424;25.604;2022-11-15T06:41:34;59.20;;;32.43;;
39156;SDS011;24889;42.424;25.604;2022-11-15T06:44:00;68.20;;;36.33;;
39156;SDS011;24889;42.424;25.604;2022-11-15T06:46:25;72.23;;;36.50;;
39156;SDS011;24889;42.424;25.604;2022-11-15T06:48:51;60.67;;;32.77;;
39156;SDS011;24889;42.424;25.604;2022-11-15T06:51:17;51.65;;;30.35;;
39156;SDS011;24889;42.424;25.604;2022-11-15T06:53:42;47.97;;;26.47;;
39156;SDS011;24889;42.424;25.604;2022-11-15T06:56:07;63.47;;;26.03;;
39156;SDS011;24889;42.424;25.604;2022-11-15T06:58:34;51.28;;;26.50;;
39156;SDS011;24889;42.424;25.604;2022-11-15T07:01:00;50.22;;;28.40;;
39156;SDS011;24889;42.424;25.604;2022-11-15T07:03:26;53.55;;;28.23;;
39156;SDS011;24889;42.424;25.604;2022-11-15T07:05:55;65.85;;;33.80;;
39156;SDS011;24889;42.424;25.604;2022-11-15T07:08:21;60.83;;;32.90;;
39156;SDS011;24889;42.424;25.604;2022-11-15T07:10:46;56.30;;;32.78;;
39156;SDS011;24889;42.424;25.604;2022-11-15T07:13:12;59.47;;;34.80;;
39156;SDS011;24889;42.424;25.604;2022-11-15T07:15:37;56.60;;;32.27;;
39156;SDS011;24889;42.424;25.604;2022-11-15T07:18:02;61.73;;;34.20;;
39156;SDS011;24889;42.424;25.604;2022-11-15T07:20:28;58.20;;;32.03;;
39156;SDS011;24889;42.424;25.604;2022-11-15T07:22:59;58.40;;;31.27;;
39156;SDS011;24889;42.424;25.604;2022-11-15T07:25:24;63.53;;;33.83;;
39156;SDS011;24889;42.424;25.604;2022-11-15T07:27:56;61.80;;;33.97;;
39156;SDS011;24889;42.424;25.604;2022-11-15T07:30:22;62.67;;;35.00;;
39156;SDS011;24889;42.424;25.604;2022-11-15T07:32:51;66.10;;;36.17;;
39156;SDS011;24889;42.424;25.604;2022-11-15T07:35:17;83.90;;;39.53;;
39156;SDS011;24889;42.424;25.604;2022-11-15T07:37:42;83.23;;;41.47;;
39156;SDS011;24889;42.424;25.604;2022-11-15T07:40:07;79.77;;;39.23;;
39156;SDS011;24889;42.424;25.604;2022-11-15T07:42:33;68.18;;;34.25;;
39156;SDS011;24889;42.424;25.604;2022-11-15T07:45:17;69.55;;;32.67;;
39156;SDS011;24889;42.424;25.604;2022-11-15T07:47:45;57.03;;;32.23;;
39156;SDS011;24889;42.424;25.604;2022-11-15T07:50:10;63.20;;;32.72;;
39156;SDS011;24889;42.424;25.604;2022-11-15T07:52:35;57.50;;;32.10;;
39156;SDS011;24889;42.424;25.604;2022-11-15T07:55:00;61.03;;;34.17;;
39156;SDS011;24889;42.424;25.604;2022-11-15T07:57:26;71.27;;;35.23;;
39156;SDS011;24889;42.424;25.604;2022-11-15T07:59:51;78.67;;;37.93;;
39156;SDS011;24889;42.424;25.604;2022-11-15T08:02:16;63.67;;;37.63;;
39156;SDS011;24889;42.424;25.604;2022-11-15T08:04:42;73.93;;;40.38;;
39156;SDS011;24889;42.424;25.604;2022-11-15T08:07:08;68.13;;;38.13;;
39156;SDS011;24889;42.424;25.604;2022-11-15T08:09:34;75.87;;;36.70;;
39156;SDS011;24889;42.424;25.604;2022-11-15T08:11:59;102.50;;;42.70;;
39156;SDS011;24889;42.424;25.604;2022-11-15T08:14:25;78.57;;;42.58;;
39156;SDS011;24889;42.424;25.604;2022-11-15T08:16:50;72.10;;;38.70;;
39156;SDS011;24889;42.424;25.604;2022-11-15T08:19:15;68.03;;;37.00;;
39156;SDS011;24889;42.424;25.604;2022-11-15T08:21:41;68.90;;;38.27;;
39156;SDS011;24889;42.424;25.604;2022-11-15T08:24:08;63.47;;;34.73;;
39156;SDS011;24889;42.424;25.604;2022-11-15T08:26:34;71.45;;;37.60;;
39156;SDS011;24889;42.424;25.604;2022-11-15T08:29:00;70.27;;;38.57;;
39156;SDS011;24889;42.424;25.604;2022-11-15T08:31:25;69.70;;;37.70;;
39156;SDS011;24889;42.424;25.604;2022-11-15T08:33:50;77.27;;;38.33;;
39156;SDS011;24889;42.424;25.604;2022-11-15T08:36:16;72.63;;;38.03;;
39156;SDS011;24889;42.424;25.604;2022-11-15T08:38:41;87.22;;;39.47;;
39156;SDS011;24889;42.424;25.604;2022-11-15T08:41:09;76.80;;;36.78;;
39156;SDS011;24889;42.424;25.604;2022-11-15T08:43:36;60.70;;;33.25;;
39156;SDS011;24889;42.424;25.604;2022-11-15T08:46:01;69.23;;;34.50;;
39156;SDS011;24889;42.424;25.604;2022-11-15T08:48:26;72.50;;;36.13;;
39156;SDS011;24889;42.424;25.604;2022-11-15T08:50:55;66.70;;;34.83;;
39156;SDS011;24889;42.424;25.604;2022-11-15T08:53:21;65.85;;;33.55;;
39156;SDS011;24889;42.424;25.604;2022-11-15T08:55:46;66.13;;;29.37;;
39156;SDS011;24889;42.424;25.604;2022-11-15T08:58:12;59.80;;;29.77;;
39156;SDS011;24889;42.424;25.604;2022-11-15T09:00:37;58.97;;;28.93;;
39156;SDS011;24889;42.424;25.604;2022-11-15T09:03:05;64.17;;;31.23;;
39156;SDS011;24889;42.424;25.604;2022-11-15T09:05:31;61.88;;;28.55;;
39156;SDS011;24889;42.424;25.604;2022-11-15T09:07:56;66.37;;;31.67;;
39156;SDS011;24889;42.424;25.604;2022-11-15T09:10:22;68.47;;;30.27;;
39156;SDS011;24889;42.424;25.604;2022-11-15T09:12:47;56.70;;;28.47;;
39156;SDS011;24889;42.424;25.604;2022-11-15T09:15:15;55.42;;;29.30;;
39156;SDS011;24889;42.424;25.604;2022-11-15T09:17:41;68.40;;;32.72;;
39156;SDS011;24889;42.424;25.604;2022-11-15T09:20:06;66.50;;;31.70;;
39156;SDS011;24889;42.424;25.604;2022-11-15T09:22:32;59.53;;;29.05;;
39156;SDS011;24889;42.424;25.604;2022-11-15T09:24:57;45.27;;;22.40;;
39156;SDS011;24889;42.424;25.604;2022-11-15T09:27:25;63.90;;;29.13;;
39156;SDS011;24889;42.424;25.604;2022-11-15T09:29:52;57.03;;;28.90;;
39156;SDS011;24889;42.424;25.604;2022-11-15T09:32:17;62.20;;;30.87;;
39156;SDS011;24889;42.424;25.604;2022-11-15T09:34:42;62.43;;;30.97;;
39156;SDS011;24889;42.424;25.604;2022-11-15T09:37:07;69.70;;;33.27;;
39156;SDS011;24889;42.424;25.604;2022-11-15T09:39:33;59.90;;;31.93;;
39156;SDS011;24889;42.424;25.604;2022-11-15T09:42:03;64.40;;;33.07;;
39156;SDS011;24889;42.424;25.604;2022-11-15T09:47:10;73.78;;;40.65;;
39156;SDS011;24889;42.424;25.604;2022-11-15T09:49:40;71.82;;;35.38;;
39156;SDS011;24889;42.424;25.604;2022-11-15T09:52:06;65.07;;;35.13;;
39156;SDS011;24889;42.424;25.604;2022-11-15T09:57:11;58.90;;;31.83;;
39156;SDS011;24889;42.424;25.604;2022-11-15T10:02:21;62.67;;;30.77;;
39156;SDS011;24889;42.424;25.604;2022-11-15T10:04:48;56.67;;;29.70;;
39156;SDS011;24889;42.424;25.604;2022-11-15T10:09:45;55.85;;;28.33;;
39156;SDS011;24889;42.424;25.604;2022-11-15T10:12:12;69.97;;;33.53;;
39156;SDS011;24889;42.424;25.604;2022-11-15T10:14:38;58.38;;;31.42;;
39156;SDS011;24889;42.424;25.604;2022-11-15T10:19:46;58.40;;;29.38;;
39156;SDS011;24889;42.424;25.604;2022-11-15T10:22:24;62.15;;;29.98;;
39156;SDS011;24889;42.424;25.604;2022-11-15T10:24:52;65.30;;;32.90;;
39156;SDS011;24889;42.424;25.604;2022-11-15T10:27:18;61.08;;;31.38;;
39156;SDS011;24889;42.424;25.604;2022-11-15T10:29:44;63.72;;;32.40;;
39156;SDS011;24889;42.424;25.604;2022-11-15T10:32:14;68.80;;;40.30;;
39156;SDS011;24889;42.424;25.604;2022-11-15T10:34:40;67.38;;;37.40;;
39156;SDS011;24889;42.424;25.604;2022-11-15T10:37:05;70.20;;;39.17;;
39156;SDS011;24889;42.424;25.604;2022-11-15T10:39:31;73.17;;;39.23;;
39156;SDS011;24889;42.424;25.604;2022-11-15T10:41:58;63.88;;;35.22;;
39156;SDS011;24889;42.424;25.604;2022-11-15T10:44:43;57.97;;;30.33;;
39156;SDS011;24889;42.424;25.604;2022-11-15T10:50:11;59.47;;;29.80;;
39156;SDS011;24889;42.424;25.604;2022-11-15T10:52:50;64.15;;;30.95;;
39156;SDS011;24889;42.424;25.604;2022-11-15T10:57:47;64.93;;;30.63;;
39156;SDS011;24889;42.424;25.604;2022-11-15T11:02:45;61.07;;;30.20;;
39156;SDS011;24889;42.424;25.604;2022-11-15T11:05:36;56.13;;;28.60;;
39156;SDS011;24889;42.424;25.604;2022-11-15T11:10:27;64.30;;;30.53;;
39156;SDS011;24889;42.424;25.604;2022-11-15T11:12:53;55.87;;;29.13;;
39156;SDS011;24889;42.424;25.604;2022-11-15T11:15:18;64.13;;;29.43;;
39156;SDS011;24889;42.424;25.604;2022-11-15T11:17:51;64.77;;;29.43;;
39156;SDS011;24889;42.424;25.604;2022-11-15T11:20:36;57.93;;;30.73;;
39156;SDS011;24889;42.424;25.604;2022-11-15T11:23:16;66.60;;;30.75;;
39156;SDS011;24889;42.424;25.604;2022-11-15T11:25:56;60.17;;;31.13;;
39156;SDS011;24889;42.424;25.604;2022-11-15T11:36:36;61.67;;;30.55;;
39156;SDS011;24889;42.424;25.604;2022-11-15T11:46:33;58.83;;;32.30;;
39156;SDS011;24889;42.424;25.604;2022-11-15T11:49:08;61.88;;;32.80;;
39156;SDS011;24889;42.424;25.604;2022-11-15T11:51:38;60.22;;;31.30;;
39156;SDS011;24889;42.424;25.604;2022-11-15T11:54:22;62.80;;;32.75;;
39156;SDS011;24889;42.424;25.604;2022-11-15T11:56:48;57.55;;;30.20;;
39156;SDS011;24889;42.424;25.604;2022-11-15T11:59:17;57.65;;;31.20;;
39156;SDS011;24889;42.424;25.604;2022-11-15T12:01:44;58.05;;;30.08;;
39156;SDS011;24889;42.424;25.604;2022-11-15T12:04:18;62.20;;;30.87;;
39156;SDS011;24889;42.424;25.604;2022-11-15T12:06:46;59.03;;;31.77;;
39156;SDS011;24889;42.424;25.604;2022-11-15T12:11:50;62.85;;;32.10;;
39156;SDS011;24889;42.424;25.604;2022-11-15T12:14:33;64.53;;;32.92;;
39156;SDS011;24889;42.424;25.604;2022-11-15T12:17:00;50.95;;;29.25;;
39156;SDS011;24889;42.424;25.604;2022-11-15T12:19:25;61.83;;;31.93;;
39156;SDS011;24889;42.424;25.604;2022-11-15T12:24:20;59.53;;;31.35;;
39156;SDS011;24889;42.424;25.604;2022-11-15T12:26:49;55.92;;;32.05;;
39156;SDS011;24889;42.424;25.604;2022-11-15T12:29:59;60.95;;;30.08;;
39156;SDS011;24889;42.424;25.604;2022-11-15T12:32:04;51.58;;;29.75;;
39156;SDS011;24889;42.424;25.604;2022-11-15T12:34:38;54.85;;;29.15;;
39156;SDS011;24889;42.424;25.604;2022-11-15T12:40:04;54.60;;;28.83;;
39156;SDS011;24889;42.424;25.604;2022-11-15T12:44:57;56.20;;;28.67;;
39156;SDS011;24889;42.424;25.604;2022-11-15T12:47:24;58.30;;;30.10;;
39156;SDS011;24889;42.424;25.604;2022-11-15T12:49:50;63.42;;;31.05;;
39156;SDS011;24889;42.424;25.604;2022-11-15T12:52:15;59.57;;;30.20;;
39156;SDS011;24889;42.424;25.604;2022-11-15T13:02:22;55.25;;;30.50;;
39156;SDS011;24889;42.424;25.604;2022-11-15T13:04:48;57.72;;;30.92;;
39156;SDS011;24889;42.424;25.604;2022-11-15T13:09:58;52.08;;;28.80;;
39156;SDS011;24889;42.424;25.604;2022-11-15T13:14:55;52.80;;;29.85;;
39156;SDS011;24889;42.424;25.604;2022-11-15T13:22:40;52.92;;;29.02;;
39156;SDS011;24889;42.424;25.604;2022-11-15T13:28:01;55.03;;;27.87;;
39156;SDS011;24889;42.424;25.604;2022-11-15T13:30:27;57.47;;;30.40;;
39156;SDS011;24889;42.424;25.604;2022-11-15T13:32:54;60.33;;;32.70;;
39156;SDS011;24889;42.424;25.604;2022-11-15T13:35:28;56.30;;;30.10;;
39156;SDS011;24889;42.424;25.604;2022-11-15T13:37:56;54.53;;;29.48;;
39156;SDS011;24889;42.424;25.604;2022-11-15T13:40:33;55.85;;;29.23;;
39156;SDS011;24889;42.424;25.604;2022-11-15T13:42:59;55.45;;;31.23;;
39156;SDS011;24889;42.424;25.604;2022-11-15T13:45:24;59.67;;;30.63;;
39156;SDS011;24889;42.424;25.604;2022-11-15T13:47:52;57.25;;;32.55;;
39156;SDS011;24889;42.424;25.604;2022-11-15T13:50:18;61.90;;;32.08;;
39156;SDS011;24889;42.424;25.604;2022-11-15T13:52:46;52.00;;;29.88;;
39156;SDS011;24889;42.424;25.604;2022-11-15T13:55:15;66.60;;;33.78;;
39156;SDS011;24889;42.424;25.604;2022-11-15T13:57:45;51.88;;;28.85;;
39156;SDS011;24889;42.424;25.604;2022-11-15T14:02:49;61.97;;;31.10;;
39156;SDS011;24889;42.424;25.604;2022-11-15T14:05:16;92.10;;;32.97;;
39156;SDS011;24889;42.424;25.604;2022-11-15T14:07:52;56.40;;;29.90;;
39156;SDS011;24889;42.424;25.604;2022-11-15T14:10:27;70.80;;;33.13;;
39156;SDS011;24889;42.424;25.604;2022-11-15T14:12:53;50.00;;;27.85;;
39156;SDS011;24889;42.424;25.604;2022-11-15T14:15:52;59.57;;;30.50;;
39156;SDS011;24889;42.424;25.604;2022-11-15T14:18:42;52.90;;;29.60;;
39156;SDS011;24889;42.424;25.604;2022-11-15T14:21:05;58.28;;;29.17;;
39156;SDS011;24889;42.424;25.604;2022-11-15T14:23:31;57.37;;;30.03;;
39156;SDS011;24889;42.424;25.604;2022-11-15T14:25:57;57.30;;;32.70;;
39156;SDS011;24889;42.424;25.604;2022-11-15T14:30:47;52.53;;;29.17;;
39156;SDS011;24889;42.424;25.604;2022-11-15T14:33:30;50.72;;;30.30;;
39156;SDS011;24889;42.424;25.604;2022-11-15T14:35:57;51.53;;;30.95;;
39156;SDS011;24889;42.424;25.604;2022-11-15T14:38:24;61.75;;;31.63;;
39156;SDS011;24889;42.424;25.604;2022-11-15T14:40:49;57.08;;;31.80;;
39156;SDS011;24889;42.424;25.604;2022-11-15T14:43:14;53.57;;;30.13;;
39156;SDS011;24889;42.424;25.604;2022-11-15T14:45:40;59.37;;;31.00;;
39156;SDS011;24889;42.424;25.604;2022-11-15T14:48:05;60.17;;;32.20;;
39156;SDS011;24889;42.424;25.604;2022-11-15T14:50:31;60.60;;;33.03;;
39156;SDS011;24889;42.424;25.604;2022-11-15T14:52:57;57.72;;;32.40;;
39156;SDS011;24889;42.424;25.604;2022-11-15T14:55:29;56.77;;;31.00;;
39156;SDS011;24889;42.424;25.604;2022-11-15T14:57:56;54.13;;;31.05;;
39156;SDS011;24889;42.424;25.604;2022-11-15T15:00:22;55.80;;;30.40;;
39156;SDS011;24889;42.424;25.604;2022-11-15T15:02:48;60.00;;;30.37;;
39156;SDS011;24889;42.424;25.604;2022-11-15T15:05:21;53.47;;;29.95;;
39156;SDS011;24889;42.424;25.604;2022-11-15T15:07:46;58.75;;;32.17;;
39156;SDS011;24889;42.424;25.604;2022-11-15T15:10:12;64.80;;;32.73;;
39156;SDS011;24889;42.424;25.604;2022-11-15T15:12:37;45.25;;;27.60;;
39156;SDS011;24889;42.424;25.604;2022-11-15T15:15:03;53.10;;;30.55;;
39156;SDS011;24889;42.424;25.604;2022-11-15T15:17:29;57.00;;;32.97;;
39156;SDS011;24889;42.424;25.604;2022-11-15T15:19:54;59.90;;;31.40;;
39156;SDS011;24889;42.424;25.604;2022-11-15T15:22:19;62.80;;;31.30;;
39156;SDS011;24889;42.424;25.604;2022-11-15T15:24:49;53.10;;;29.42;;
39156;SDS011;24889;42.424;25.604;2022-11-15T15:27:14;63.17;;;29.87;;
39156;SDS011;24889;42.424;25.604;2022-11-15T15:29:40;52.07;;;30.10;;
39156;SDS011;24889;42.424;25.604;2022-11-15T15:32:05;61.07;;;32.17;;
39156;SDS011;24889;42.424;25.604;2022-11-15T15:34:31;55.97;;;31.90;;
39156;SDS011;24889;42.424;25.604;2022-11-15T15:37:06;60.22;;;30.27;;
39156;SDS011;24889;42.424;25.604;2022-11-15T15:39:31;53.85;;;31.05;;
39156;SDS011;24889;42.424;25.604;2022-11-15T15:41:57;60.75;;;32.72;;
39156;SDS011;24889;42.424;25.604;2022-11-15T15:44:23;57.77;;;31.40;;
39156;SDS011;24889;42.424;25.604;2022-11-15T15:46:48;57.23;;;30.70;;
39156;SDS011;24889;42.424;25.604;2022-11-15T15:49:13;61.70;;;31.37;;
39156;SDS011;24889;42.424;25.604;2022-11-15T15:51:39;52.97;;;30.83;;
39156;SDS011;24889;42.424;25.604;2022-11-15T15:54:04;52.97;;;29.30;;
39156;SDS011;24889;42.424;25.604;2022-11-15T15:56:29;53.47;;;29.33;;
39156;SDS011;24889;42.424;25.604;2022-11-15T15:58:54;52.83;;;29.30;;
39156;SDS011;24889;42.424;25.604;2022-11-15T16:01:20;61.87;;;31.07;;
39156;SDS011;24889;42.424;25.604;2022-11-15T16:03:46;50.30;;;27.73;;
39156;SDS011;24889;42.424;25.604;2022-11-15T16:08:55;49.17;;;27.40;;
39156;SDS011;24889;42.424;25.604;2022-11-15T16:11:20;47.47;;;25.40;;